Time;durP1;ratioP1;P1;durP2;ratioP2;P2;SDS_P1;SDS_P2;PMS_P1;PMS_P2;Temp;Humidity;BMP_temperature;BMP_pressure;BME280_temperature;BME280_humidity;BME280_pressure;Samples;Min_cycle;Max_cycle;Signal;HPM_P1;HPM_P2
2022/12/29 00:01:35;;;;;;;2.05;1.40;;;11.60;94.00;;;;;;5133103;28;20023;-74
2022/12/29 00:04:02;;;;;;;3.17;1.75;;;11.60;94.10;;;;;;5133078;28;20414;-74
2022/12/29 00:06:28;;;;;;;3.10;1.67;;;11.60;94.20;;;;;;5132820;28;20016;-74
2022/12/29 00:08:54;;;;;;;1.55;1.13;;;11.60;94.30;;;;;;5133924;28;20047;-74
2022/12/29 00:11:25;;;;;;;3.78;1.50;;;11.60;94.30;;;;;;5132954;28;20035;-74
2022/12/29 00:16:36;;;;;;;2.20;1.30;;;11.60;94.50;;;;;;5134046;28;20053;-74
2022/12/29 00:19:04;;;;;;;1.45;1.05;;;11.60;94.50;;;;;;5133930;28;20023;-74
2022/12/29 00:35:36;;;;;;;1.05;0.75;;;11.40;93.50;;;;;;5133953;28;20042;-74
2022/12/29 00:46:18;;;;;;;0.55;0.20;;;11.30;94.00;;;;;;5133859;28;20039;-74
2022/12/29 00:51:28;;;;;;;0.98;0.30;;;11.20;93.90;;;;;;5118668;28;20042;-74
2022/12/29 00:53:53;;;;;;;1.80;0.47;;;11.20;94.20;;;;;;5132568;28;20028;-74
2022/12/29 00:56:19;;;;;;;0.43;0.32;;;11.10;94.40;;;;;;5132537;28;20032;-74
2022/12/29 00:58:45;;;;;;;1.65;0.20;;;11.10;94.80;;;;;;5133541;28;20031;-74
2022/12/29 01:01:10;;;;;;;1.33;0.38;;;11.10;95.10;;;;;;5115679;28;20047;-74
2022/12/29 01:03:37;;;;;;;1.95;0.60;;;11.10;95.50;;;;;;5115621;28;20035;-74
2022/12/29 01:06:08;;;;;;;0.22;0.22;;;11.00;95.70;;;;;;5133488;28;20049;-74
2022/12/29 01:08:35;;;;;;;1.23;0.75;;;11.00;96.00;;;;;;5133401;28;20027;-74
2022/12/29 01:11:06;;;;;;;1.58;0.90;;;11.00;96.30;;;;;;5133561;28;20032;-74
2022/12/29 01:13:33;;;;;;;1.13;1.02;;;11.10;96.50;;;;;;5132425;28;20375;-74
2022/12/29 01:15:58;;;;;;;1.60;1.38;;;11.10;96.70;;;;;;5115417;28;20030;-74
2022/12/29 01:18:25;;;;;;;2.50;1.30;;;11.20;97.00;;;;;;5135876;28;20024;-74
2022/12/29 01:20:57;;;;;;;2.45;1.35;;;11.20;97.10;;;;;;5136878;28;20091;-74
2022/12/29 01:23:23;;;;;;;4.18;1.52;;;11.30;97.00;;;;;;5137216;28;20016;-74
2022/12/29 01:25:48;;;;;;;1.20;0.80;;;11.30;97.00;;;;;;5136187;28;20043;-74
2022/12/29 01:28:14;;;;;;;2.00;1.27;;;11.30;96.80;;;;;;5136877;28;20035;-74
2022/12/29 01:30:39;;;;;;;3.08;1.10;;;11.30;96.70;;;;;;5135975;28;20035;-74
2022/12/29 01:33:05;;;;;;;2.65;1.20;;;11.40;96.50;;;;;;5136800;28;20036;-74
2022/12/29 01:35:31;;;;;;;3.03;1.15;;;11.40;96.40;;;;;;5136667;28;20060;-74
2022/12/29 01:37:56;;;;;;;0.80;0.63;;;11.40;96.30;;;;;;5136730;28;20050;-74
2022/12/29 01:40:22;;;;;;;0.68;0.55;;;11.40;96.10;;;;;;5136793;28;20031;-74
2022/12/29 01:42:48;;;;;;;0.88;0.60;;;11.40;95.90;;;;;;5135634;28;20067;-74
2022/12/29 01:45:16;;;;;;;2.15;0.90;;;11.40;95.60;;;;;;5136541;28;20036;-74
2022/12/29 01:47:50;;;;;;;1.48;0.80;;;11.40;95.50;;;;;;5136555;28;20024;-74
2022/12/29 01:50:15;;;;;;;2.55;0.80;;;11.40;95.30;;;;;;5136510;28;20053;-74
2022/12/29 01:52:50;;;;;;;1.63;0.90;;;11.50;95.10;;;;;;5136434;28;20035;-74
2022/12/29 01:55:17;;;;;;;0.93;0.60;;;11.50;95.00;;;;;;5135430;28;20052;-74
2022/12/29 01:57:45;;;;;;;0.93;0.60;;;11.50;95.10;;;;;;5136360;28;20043;-74
2022/12/29 02:00:13;;;;;;;0.70;0.50;;;11.50;94.60;;;;;;5136307;28;20028;-74
2022/12/29 02:02:41;;;;;;;1.90;0.80;;;11.50;94.40;;;;;;5136262;27;20041;-74
2022/12/29 02:05:30;;;;;;;0.38;0.30;;;11.50;94.00;;;;;;5118505;28;20031;-74
2022/12/29 02:07:56;;;;;;;1.02;0.55;;;11.50;93.90;;;;;;5134356;28;20439;-74
2022/12/29 02:10:24;;;;;;;1.45;0.65;;;11.60;93.70;;;;;;5136110;28;20023;-74
2022/12/29 02:12:50;;;;;;;0.93;0.57;;;11.60;93.60;;;;;;5135098;28;20020;-74
2022/12/29 02:15:16;;;;;;;0.60;0.40;;;11.60;93.50;;;;;;5135062;28;20049;-74
2022/12/29 02:18:04;;;;;;;0.50;0.35;;;11.60;93.30;;;;;;5135978;28;20019;-74
2022/12/29 02:20:46;;;;;;;0.60;0.40;;;11.60;93.30;;;;;;5135880;28;20019;-75
2022/12/29 02:23:48;;;;;;;0.93;0.63;;;11.70;93.20;;;;;;5134919;28;20044;-74
2022/12/29 02:26:51;;;;;;;0.90;0.30;;;11.70;93.00;;;;;;5135785;28;20368;-74
2022/12/29 02:29:45;;;;;;;0.73;0.40;;;11.70;92.90;;;;;;5134596;28;20035;-74
2022/12/29 02:33:08;;;;;;;3.38;1.17;;;11.70;92.70;;;;;;5134980;28;20037;-74
2022/12/29 02:36:19;;;;;;;1.55;0.40;;;11.70;92.60;;;;;;5052847;28;20033;-74
2022/12/29 02:39:19;;;;;;;0.55;0.40;;;11.70;92.30;;;;;;4993901;28;20021;-74
2022/12/29 02:42:11;;;;;;;0.47;0.30;;;11.80;92.20;;;;;;5126020;28;20059;-74
2022/12/29 02:44:52;;;;;;;1.83;0.70;;;11.80;92.00;;;;;;5134526;28;20058;-74
2022/12/29 02:47:37;;;;;;;3.03;0.45;;;11.80;91.70;;;;;;5134483;28;20265;-74
2022/12/29 02:50:14;;;;;;;2.03;0.75;;;11.80;91.80;;;;;;5135466;28;20020;-74
2022/12/29 02:52:51;;;;;;;0.80;0.22;;;11.80;91.60;;;;;;5135322;28;20049;-74
2022/12/29 02:55:16;;;;;;;2.70;0.60;;;11.80;91.40;;;;;;5135203;28;20020;-74
2022/12/29 02:57:42;;;;;;;0.95;0.50;;;11.90;91.60;;;;;;5134143;28;20039;-74
2022/12/29 03:00:09;;;;;;;0.55;0.40;;;11.90;91.60;;;;;;5117090;28;20035;-74
2022/12/29 03:02:35;;;;;;;0.75;0.45;;;11.80;91.50;;;;;;5135106;28;20020;-74
2022/12/29 03:05:20;;;;;;;2.38;0.30;;;11.80;91.60;;;;;;5134085;28;20027;-74
2022/12/29 03:07:54;;;;;;;1.20;0.52;;;11.80;91.60;;;;;;5134917;28;20019;-74
2022/12/29 03:10:35;;;;;;;1.45;0.52;;;11.80;91.70;;;;;;5134991;28;20023;-74
2022/12/29 03:16:14;;;;;;;1.50;0.65;;;11.80;91.80;;;;;;5134831;28;20030;-74
2022/12/29 03:19:04;;;;;;;1.10;0.60;;;11.80;91.90;;;;;;5134767;28;20462;-74
2022/12/29 03:24:28;;;;;;;1.90;0.63;;;11.70;91.90;;;;;;5134928;28;20046;-75
2022/12/29 03:26:58;;;;;;;1.90;0.50;;;11.80;91.80;;;;;;5134685;28;20077;-74
2022/12/29 03:29:26;;;;;;;1.95;0.73;;;11.80;91.80;;;;;;5134673;28;20046;-74
2022/12/29 03:31:54;;;;;;;1.50;0.60;;;11.70;91.90;;;;;;5134538;28;20032;-74
2022/12/29 03:34:21;;;;;;;1.15;0.50;;;11.80;91.90;;;;;;5134534;28;20030;-74
2022/12/29 03:37:14;;;;;;;4.82;0.98;;;11.80;91.90;;;;;;5133505;28;20035;-74
2022/12/29 03:39:41;;;;;;;1.08;0.30;;;11.80;91.90;;;;;;5131225;28;20038;-74
2022/12/29 03:42:15;;;;;;;0.98;0.70;;;11.80;91.70;;;;;;5133321;28;20032;-74
2022/12/29 03:44:43;;;;;;;1.30;0.32;;;11.80;91.50;;;;;;5134531;28;20024;-74
2022/12/29 03:47:14;;;;;;;1.10;0.75;;;11.80;91.80;;;;;;5134321;28;20024;-74
2022/12/29 03:49:41;;;;;;;2.10;0.32;;;11.80;91.70;;;;;;5133286;28;20030;-74
2022/12/29 03:52:06;;;;;;;0.77;0.40;;;11.80;91.60;;;;;;5133290;28;20023;-74
2022/12/29 03:54:32;;;;;;;0.95;0.50;;;11.80;91.60;;;;;;5133161;28;20033;-74
2022/12/29 03:56:58;;;;;;;1.15;0.40;;;11.80;91.70;;;;;;5134156;28;20049;-74
2022/12/29 03:59:24;;;;;;;0.82;0.50;;;11.80;91.80;;;;;;5133202;28;20020;-74
2022/12/29 04:01:49;;;;;;;1.08;0.40;;;11.70;91.50;;;;;;5133083;28;20031;-74
2022/12/29 04:04:15;;;;;;;1.35;0.40;;;11.70;91.60;;;;;;5133141;28;20028;-74
2022/12/29 04:06:41;;;;;;;1.58;0.60;;;11.80;91.50;;;;;;5134041;28;20057;-74
2022/12/29 04:09:07;;;;;;;1.13;0.57;;;11.80;91.40;;;;;;5133937;28;20038;-74
2022/12/29 04:11:33;;;;;;;0.63;0.40;;;11.70;91.30;;;;;;5133079;28;20027;-74
2022/12/29 04:13:58;;;;;;;2.35;0.63;;;11.70;91.30;;;;;;5116149;28;20032;-74
2022/12/29 04:16:24;;;;;;;2.40;0.63;;;11.70;91.30;;;;;;5133842;28;20028;-74
2022/12/29 04:18:50;;;;;;;4.13;0.60;;;11.70;91.30;;;;;;5133901;28;20027;-74
2022/12/29 04:21:15;;;;;;;13.85;0.70;;;11.80;91.20;;;;;;5132752;28;20048;-74
2022/12/29 04:23:41;;;;;;;0.77;0.40;;;11.70;91.10;;;;;;5133870;28;20031;-74
2022/12/29 04:26:08;;;;;;;1.48;0.22;;;11.70;91.50;;;;;;5133849;28;20031;-74
2022/12/29 04:28:35;;;;;;;2.78;0.45;;;11.60;91.80;;;;;;5133829;28;20031;-74
2022/12/29 04:31:00;;;;;;;4.47;0.52;;;11.60;92.00;;;;;;5132882;28;20032;-74
2022/12/29 04:33:26;;;;;;;1.75;0.70;;;11.50;92.40;;;;;;5133790;28;20046;-74
2022/12/29 04:35:53;;;;;;;0.90;0.22;;;11.50;92.40;;;;;;5133857;28;20028;-74
2022/12/29 04:38:20;;;;;;;0.55;0.25;;;11.40;92.40;;;;;;5116038;28;20024;-74
2022/12/29 04:40:46;;;;;;;1.67;0.40;;;11.30;92.50;;;;;;5132752;28;20028;-74
2022/12/29 04:43:13;;;;;;;2.20;0.30;;;11.30;92.70;;;;;;5133808;28;20054;-74
2022/12/29 04:45:43;;;;;;;2.03;0.77;;;11.20;92.50;;;;;;5133707;28;20024;-74
2022/12/29 04:48:08;;;;;;;0.88;0.17;;;11.20;92.50;;;;;;5132819;28;20045;-74
2022/12/29 04:50:34;;;;;;;2.92;0.52;;;11.10;92.10;;;;;;5133603;28;20443;-74
2022/12/29 04:53:00;;;;;;;0.30;0.30;;;11.10;92.10;;;;;;5134752;28;20053;-74
2022/12/29 04:55:25;;;;;;;1.45;0.30;;;11.10;91.90;;;;;;5136548;28;20020;-74
2022/12/29 04:57:51;;;;;;;2.97;0.52;;;11.00;91.90;;;;;;5136611;28;20036;-74
2022/12/29 05:00:17;;;;;;;2.92;0.20;;;11.00;91.90;;;;;;5136449;28;20167;-74
2022/12/29 05:02:43;;;;;;;2.78;0.70;;;11.00;91.90;;;;;;5137456;28;20023;-74
2022/12/29 05:05:09;;;;;;;3.08;0.30;;;10.90;91.80;;;;;;5136371;28;20072;-73
2022/12/29 05:07:35;;;;;;;0.40;0.20;;;10.90;91.70;;;;;;5136321;28;20028;-74
2022/12/29 05:10:01;;;;;;;0.85;0.43;;;10.90;91.60;;;;;;5136363;28;20036;-74
2022/12/29 05:12:33;;;;;;;1.38;0.30;;;10.90;91.40;;;;;;5136443;28;20051;-74
2022/12/29 05:14:59;;;;;;;2.20;0.85;;;10.90;91.40;;;;;;5137198;28;20083;-74
2022/12/29 05:17:25;;;;;;;1.85;0.40;;;10.90;91.30;;;;;;5136272;28;20035;-74
2022/12/29 05:19:50;;;;;;;2.13;0.40;;;10.90;91.20;;;;;;5137130;28;20020;-74
2022/12/29 05:22:16;;;;;;;4.22;0.77;;;10.90;91.10;;;;;;5135898;28;20073;-74
2022/12/29 05:24:42;;;;;;;2.38;0.40;;;10.90;90.90;;;;;;5137191;28;20043;-74
2022/12/29 05:27:07;;;;;;;1.98;0.38;;;10.90;90.90;;;;;;5135936;28;20055;-74
2022/12/29 05:29:33;;;;;;;5.90;0.82;;;10.90;90.50;;;;;;5118977;28;20024;-74
2022/12/29 05:31:59;;;;;;;5.43;1.02;;;10.90;90.90;;;;;;5135978;28;20528;-74
2022/12/29 05:34:24;;;;;;;3.83;1.27;;;10.90;90.20;;;;;;5136817;28;20028;-74
2022/12/29 05:36:50;;;;;;;2.03;0.63;;;10.90;90.10;;;;;;5135661;28;20027;-74
2022/12/29 05:39:16;;;;;;;3.80;0.57;;;10.90;90.10;;;;;;5136732;28;20016;-74
2022/12/29 05:41:41;;;;;;;2.25;0.20;;;10.90;89.90;;;;;;5136696;28;20035;-73
2022/12/29 05:44:07;;;;;;;2.35;0.57;;;10.90;90.10;;;;;;5136651;28;20075;-74
2022/12/29 05:46:32;;;;;;;1.33;0.38;;;10.80;90.00;;;;;;5135637;28;20028;-74
2022/12/29 05:48:58;;;;;;;1.77;0.43;;;10.80;90.00;;;;;;5135582;28;20031;-74
2022/12/29 05:51:24;;;;;;;1.98;0.47;;;10.90;89.70;;;;;;5135508;28;20028;-73
2022/12/29 05:53:50;;;;;;;1.75;0.73;;;10.90;89.80;;;;;;5135376;28;20043;-73
2022/12/29 05:56:15;;;;;;;5.50;0.80;;;10.90;89.90;;;;;;5135409;28;20043;-74
2022/12/29 05:58:41;;;;;;;2.88;0.40;;;10.90;90.40;;;;;;5136337;28;20031;-74
2022/12/29 06:01:07;;;;;;;2.83;0.38;;;11.00;89.80;;;;;;5118262;28;20031;-74
2022/12/29 06:03:32;;;;;;;2.05;0.50;;;11.00;90.00;;;;;;5134857;28;20039;-74
2022/12/29 06:05:58;;;;;;;1.85;0.38;;;11.00;89.60;;;;;;5135269;28;20031;-74
2022/12/29 06:08:24;;;;;;;1.08;0.40;;;11.00;89.40;;;;;;5136048;28;20054;-74
2022/12/29 06:10:50;;;;;;;2.65;0.52;;;11.10;89.20;;;;;;5135419;28;20064;-74
2022/12/29 06:13:15;;;;;;;3.00;0.45;;;11.10;87.90;;;;;;5135137;28;20080;-74
2022/12/29 06:15:41;;;;;;;2.20;0.95;;;11.10;87.70;;;;;;5101067;28;20028;-74
2022/12/29 06:18:07;;;;;;;2.70;0.47;;;11.10;86.20;;;;;;5135969;28;20035;-74
2022/12/29 06:20:32;;;;;;;2.38;0.32;;;11.10;86.10;;;;;;5101110;28;20024;-74
2022/12/29 06:22:58;;;;;;;1.27;0.47;;;11.20;85.50;;;;;;5134737;28;20036;-74
2022/12/29 06:25:24;;;;;;;1.08;0.28;;;11.20;85.80;;;;;;5134847;28;20478;-74
2022/12/29 06:27:49;;;;;;;2.92;0.55;;;11.20;86.00;;;;;;5117737;28;20020;-74
2022/12/29 06:30:16;;;;;;;2.47;0.50;;;11.20;85.50;;;;;;5134697;28;20038;-74
2022/12/29 06:32:42;;;;;;;3.15;0.55;;;11.10;85.90;;;;;;5135678;28;20034;-74
2022/12/29 06:35:09;;;;;;;0.70;0.38;;;11.10;85.90;;;;;;5135537;28;20057;-74
2022/12/29 06:37:34;;;;;;;1.35;0.32;;;11.20;85.50;;;;;;5135705;28;20038;-74
2022/12/29 06:40:00;;;;;;;1.58;0.47;;;11.10;85.90;;;;;;5135580;28;20020;-74
2022/12/29 06:42:26;;;;;;;4.85;0.73;;;11.10;85.60;;;;;;5134449;28;20031;-74
2022/12/29 06:44:52;;;;;;;0.93;0.28;;;11.10;85.40;;;;;;5134410;28;20028;-74
2022/12/29 06:47:18;;;;;;;1.20;0.40;;;11.10;85.50;;;;;;5134456;28;20063;-74
2022/12/29 06:49:44;;;;;;;2.53;0.50;;;11.10;85.50;;;;;;5134400;28;20024;-74
2022/12/29 06:52:10;;;;;;;2.30;0.50;;;11.10;85.10;;;;;;5117251;28;20087;-74
2022/12/29 06:54:35;;;;;;;2.15;0.40;;;11.10;84.50;;;;;;5134267;28;20027;-74
2022/12/29 06:57:01;;;;;;;1.52;0.60;;;11.10;85.30;;;;;;5134199;28;20065;-74
2022/12/29 06:59:27;;;;;;;5.75;0.63;;;11.10;84.00;;;;;;5134118;28;20026;-74
2022/12/29 07:01:53;;;;;;;0.85;0.28;;;11.10;83.90;;;;;;5134218;28;20027;-74
2022/12/29 07:04:18;;;;;;;1.90;0.30;;;11.10;83.50;;;;;;5134041;28;20046;-74
2022/12/29 07:06:44;;;;;;;3.60;0.40;;;11.10;83.40;;;;;;5135028;28;20027;-74
2022/12/29 07:09:10;;;;;;;4.22;0.68;;;11.10;82.40;;;;;;5134863;28;20035;-74
2022/12/29 07:11:35;;;;;;;2.90;0.95;;;11.10;82.90;;;;;;5117133;28;20047;-74
2022/12/29 07:14:02;;;;;;;2.58;0.50;;;11.10;82.50;;;;;;5116856;28;20047;-74
2022/12/29 07:16:29;;;;;;;3.30;0.85;;;11.10;81.40;;;;;;5116079;28;20027;-74
2022/12/29 07:18:54;;;;;;;3.55;0.52;;;11.20;81.90;;;;;;5133898;28;20047;-74
2022/12/29 07:21:20;;;;;;;2.50;0.55;;;11.20;82.00;;;;;;5133544;28;20056;-74
2022/12/29 07:23:46;;;;;;;1.77;0.17;;;11.20;81.20;;;;;;5134736;28;20023;-75
2022/12/29 07:26:13;;;;;;;1.55;0.43;;;11.20;81.80;;;;;;5134667;28;20030;-74
2022/12/29 07:28:39;;;;;;;6.72;0.98;;;11.30;81.80;;;;;;5134606;28;20083;-74
2022/12/29 07:31:06;;;;;;;1.23;0.50;;;11.30;82.00;;;;;;5134546;28;20039;-74
2022/12/29 07:33:32;;;;;;;4.50;0.55;;;11.30;81.80;;;;;;5134506;28;20028;-74
2022/12/29 07:35:59;;;;;;;2.58;0.55;;;11.30;82.10;;;;;;5133396;28;20024;-74
2022/12/29 07:38:25;;;;;;;1.58;0.50;;;11.30;81.60;;;;;;5134423;28;20020;-74
2022/12/29 07:40:51;;;;;;;2.80;0.50;;;11.40;81.10;;;;;;5134409;28;20050;-74
2022/12/29 07:43:16;;;;;;;1.77;0.40;;;11.40;81.50;;;;;;5134349;28;20020;-74
2022/12/29 07:45:42;;;;;;;1.15;0.47;;;11.40;80.60;;;;;;5133456;28;20478;-74
2022/12/29 07:48:08;;;;;;;2.95;0.75;;;11.30;81.00;;;;;;5133318;28;20032;-75
2022/12/29 07:50:37;;;;;;;2.03;0.30;;;11.30;80.20;;;;;;5133413;28;20024;-74
2022/12/29 07:53:03;;;;;;;4.47;0.60;;;11.30;80.70;;;;;;5134246;28;20031;-74
2022/12/29 07:55:29;;;;;;;4.35;0.52;;;11.30;80.00;;;;;;5134167;28;20031;-74
2022/12/29 07:57:55;;;;;;;3.08;0.55;;;11.30;79.90;;;;;;5133233;28;20023;-74
2022/12/29 08:00:21;;;;;;;1.70;0.50;;;11.20;80.20;;;;;;5116284;28;20058;-74
2022/12/29 08:02:47;;;;;;;4.53;1.02;;;11.20;79.50;;;;;;5132984;28;20019;-74
2022/12/29 08:05:12;;;;;;;6.72;0.98;;;11.20;79.50;;;;;;5133275;28;20057;-74
2022/12/29 08:07:38;;;;;;;3.75;0.55;;;11.20;79.60;;;;;;5115942;28;20024;-74
2022/12/29 08:10:04;;;;;;;2.55;0.82;;;11.20;79.60;;;;;;5133097;28;20054;-74
2022/12/29 08:12:30;;;;;;;1.13;0.20;;;11.30;79.60;;;;;;5133996;28;20058;-74
2022/12/29 08:14:55;;;;;;;4.07;0.50;;;11.30;80.20;;;;;;5133846;28;20023;-74
2022/12/29 08:17:21;;;;;;;2.20;0.40;;;11.30;80.40;;;;;;5133945;28;20034;-74
2022/12/29 08:19:47;;;;;;;2.05;0.40;;;11.30;80.10;;;;;;5132990;28;20031;-74
2022/12/29 08:22:14;;;;;;;4.70;0.60;;;11.30;80.20;;;;;;5115660;28;20051;-74
2022/12/29 08:24:40;;;;;;;3.28;0.68;;;11.30;80.40;;;;;;5133860;28;20030;-74
2022/12/29 08:27:05;;;;;;;4.47;0.88;;;11.30;80.60;;;;;;5136154;28;20079;-74
2022/12/29 08:29:31;;;;;;;4.50;1.13;;;11.30;80.00;;;;;;5120162;28;20035;-74
2022/12/29 08:31:56;;;;;;;2.42;0.85;;;11.30;80.30;;;;;;5138057;28;20028;-74
2022/12/29 08:34:22;;;;;;;1.80;0.50;;;11.40;80.60;;;;;;5137974;28;20051;-74
2022/12/29 08:36:48;;;;;;;7.10;0.93;;;11.40;80.30;;;;;;5137855;28;20032;-74
2022/12/29 08:39:14;;;;;;;1.85;0.63;;;11.40;80.60;;;;;;5119942;28;20024;-74
2022/12/29 08:41:39;;;;;;;3.97;0.95;;;11.40;79.50;;;;;;5137873;28;20107;-74
2022/12/29 08:44:05;;;;;;;3.88;0.40;;;11.40;78.90;;;;;;5137924;28;20035;-74
2022/12/29 08:46:31;;;;;;;10.43;1.80;;;11.40;78.50;;;;;;5136862;28;20055;-74
2022/12/29 08:48:57;;;;;;;6.45;0.98;;;11.40;78.60;;;;;;5136657;28;20081;-74
2022/12/29 08:51:23;;;;;;;4.30;0.60;;;11.50;78.50;;;;;;5136727;28;20027;-74
2022/12/29 08:53:48;;;;;;;3.55;1.08;;;11.50;77.60;;;;;;5137600;28;20030;-74
2022/12/29 08:56:14;;;;;;;7.63;0.90;;;11.50;77.50;;;;;;5136440;28;20036;-74
2022/12/29 08:58:40;;;;;;;3.00;0.60;;;11.60;77.70;;;;;;5136582;28;20023;-74
2022/12/29 09:01:06;;;;;;;4.25;0.75;;;11.70;77.60;;;;;;5137481;28;20016;-74
2022/12/29 09:03:32;;;;;;;2.50;0.70;;;11.60;77.40;;;;;;5136460;28;20469;-74
2022/12/29 09:05:57;;;;;;;2.83;0.65;;;11.60;77.50;;;;;;5137319;28;20032;-74
2022/12/29 09:08:23;;;;;;;2.65;0.60;;;11.60;77.70;;;;;;5137262;28;20028;-74
2022/12/29 09:10:49;;;;;;;6.40;0.80;;;11.60;78.10;;;;;;5137265;28;20028;-74
2022/12/29 09:13:16;;;;;;;5.40;1.58;;;11.60;78.20;;;;;;5137219;28;20053;-74
2022/12/29 09:15:41;;;;;;;4.55;0.73;;;11.60;78.00;;;;;;5137136;28;20042;-74
2022/12/29 09:18:09;;;;;;;3.05;0.60;;;11.60;78.50;;;;;;5137129;28;20035;-74
2022/12/29 09:20:34;;;;;;;3.10;0.57;;;11.50;78.20;;;;;;5119185;28;20026;-76
2022/12/29 09:23:01;;;;;;;5.45;1.02;;;11.50;78.40;;;;;;5137027;28;20031;-74
2022/12/29 09:25:27;;;;;;;4.40;0.75;;;11.50;78.90;;;;;;5137030;28;20110;-74
2022/12/29 09:27:53;;;;;;;6.07;0.90;;;11.50;78.60;;;;;;5136966;28;20028;-74
2022/12/29 09:30:21;;;;;;;5.28;1.15;;;11.60;78.30;;;;;;5135986;28;20045;-74
2022/12/29 09:32:47;;;;;;;1.27;0.70;;;11.60;78.10;;;;;;5135811;28;20028;-74
2022/12/29 09:35:14;;;;;;;3.00;0.73;;;11.60;77.80;;;;;;5135733;28;20023;-74
2022/12/29 09:37:39;;;;;;;3.00;0.77;;;11.60;77.70;;;;;;5135134;28;20032;-74
2022/12/29 09:40:07;;;;;;;4.90;0.70;;;11.60;77.50;;;;;;5136526;28;20028;-74
2022/12/29 09:42:42;;;;;;;5.10;0.68;;;11.70;77.80;;;;;;5136671;28;20020;-74
2022/12/29 09:45:20;;;;;;;3.38;0.75;;;11.60;77.20;;;;;;5136677;28;20031;-74
2022/12/29 09:47:46;;;;;;;2.58;0.60;;;11.70;78.40;;;;;;5136619;28;20049;-74
2022/12/29 09:50:36;;;;;;;3.05;0.55;;;11.60;78.90;;;;;;5135732;28;20055;-74
2022/12/29 09:53:45;;;;;;;5.38;0.68;;;11.60;79.20;;;;;;5136540;28;20031;-74
2022/12/29 09:56:16;;;;;;;5.80;1.08;;;11.60;79.10;;;;;;5053850;28;20049;-74
2022/12/29 09:58:51;;;;;;;4.57;0.57;;;11.50;79.00;;;;;;5122215;27;20043;-74
2022/12/29 10:01:31;;;;;;;3.22;0.73;;;11.50;79.30;;;;;;5136382;28;20012;-74
2022/12/29 10:03:58;;;;;;;2.10;0.60;;;11.50;79.60;;;;;;5136289;28;20026;-74
2022/12/29 10:06:43;;;;;;;1.50;0.90;;;11.50;79.80;;;;;;5135263;28;20050;-74
2022/12/29 10:09:29;;;;;;;2.17;0.50;;;11.50;81.60;;;;;;5135069;28;20038;-74
2022/12/29 10:12:31;;;;;;;2.85;0.57;;;11.40;81.80;;;;;;5136212;28;20023;-74
2022/12/29 10:14:57;;;;;;;1.10;0.38;;;11.40;81.90;;;;;;5136050;28;20031;-74
2022/12/29 10:17:37;;;;;;;4.60;0.50;;;11.30;82.30;;;;;;5135954;28;20079;-74
2022/12/29 10:20:19;;;;;;;4.20;0.90;;;11.30;82.80;;;;;;5135978;28;20024;-74
2022/12/29 10:23:03;;;;;;;3.20;1.00;;;11.20;83.20;;;;;;5134720;28;20054;-74
2022/12/29 10:25:34;;;;;;;6.57;0.88;;;11.20;83.80;;;;;;5134908;28;20095;-74
2022/12/29 10:28:06;;;;;;;1.55;0.80;;;11.10;85.00;;;;;;5135845;28;20028;-74
2022/12/29 10:30:34;;;;;;;2.27;0.80;;;11.10;85.30;;;;;;5135856;28;20184;-74
2022/12/29 10:33:07;;;;;;;2.33;0.32;;;11.10;85.60;;;;;;5134824;28;20024;-75
2022/12/29 10:35:38;;;;;;;3.72;0.70;;;11.10;85.70;;;;;;5135653;28;20079;-75
2022/12/29 10:38:27;;;;;;;4.00;0.85;;;11.10;85.90;;;;;;5134611;28;20024;-75
2022/12/29 10:41:15;;;;;;;5.60;0.65;;;11.00;86.90;;;;;;5135595;28;20027;-75
2022/12/29 10:43:46;;;;;;;2.17;0.50;;;11.00;86.50;;;;;;5135510;28;20020;-75
2022/12/29 10:46:17;;;;;;;2.30;0.68;;;11.00;87.10;;;;;;5134447;28;20053;-74
2022/12/29 10:48:45;;;;;;;6.25;1.05;;;11.00;88.80;;;;;;5135375;28;20073;-74
2022/12/29 10:51:42;;;;;;;2.28;0.50;;;11.00;87.90;;;;;;5133290;28;20050;-74
2022/12/29 10:54:33;;;;;;;5.50;0.90;;;10.90;88.10;;;;;;5131124;28;20069;-74
2022/12/29 10:57:05;;;;;;;1.67;0.60;;;10.90;88.20;;;;;;5134080;28;20047;-74
2022/12/29 10:59:35;;;;;;;5.80;0.93;;;10.90;88.40;;;;;;5135212;28;20024;-74
2022/12/29 11:02:07;;;;;;;2.40;0.70;;;10.90;89.30;;;;;;5135123;28;20019;-74
2022/12/29 11:04:59;;;;;;;5.67;0.77;;;10.80;90.30;;;;;;5135067;28;20024;-74
2022/12/29 11:07:25;;;;;;;7.47;0.68;;;10.80;90.60;;;;;;5103758;28;20046;-74
2022/12/29 11:09:52;;;;;;;3.15;0.80;;;10.70;90.50;;;;;;5133996;28;20023;-75
2022/12/29 11:12:24;;;;;;;4.40;0.80;;;10.70;90.60;;;;;;5134033;28;20031;-74
2022/12/29 11:15:08;;;;;;;4.15;1.15;;;10.60;90.50;;;;;;5133874;28;20016;-73
2022/12/29 11:17:56;;;;;;;3.55;0.57;;;10.70;90.70;;;;;;5134856;28;20098;-74
2022/12/29 11:20:37;;;;;;;3.70;1.02;;;10.70;90.60;;;;;;5134820;28;20049;-74
2022/12/29 11:23:05;;;;;;;2.33;0.80;;;10.70;90.50;;;;;;5134775;28;20032;-74
2022/12/29 11:25:31;;;;;;;3.35;0.50;;;10.80;90.40;;;;;;5134694;28;20043;-74
2022/12/29 11:28:04;;;;;;;3.83;0.57;;;10.80;90.40;;;;;;5134590;28;20028;-74
2022/12/29 11:30:31;;;;;;;4.57;0.57;;;10.80;90.10;;;;;;5134675;28;20028;-74
2022/12/29 11:32:58;;;;;;;2.88;0.73;;;10.80;90.30;;;;;;5134539;28;20028;-74
2022/12/29 11:35:42;;;;;;;66.50;16.80;;;10.80;90.10;;;;;;5133401;28;20055;-74
2022/12/29 11:38:24;;;;;;;37.47;6.90;;;10.90;90.10;;;;;;5134465;28;20148;-75
2022/12/29 11:40:50;;;;;;;51.95;8.90;;;10.90;90.40;;;;;;5133381;28;20044;-74
2022/12/29 11:43:29;;;;;;;61.55;13.40;;;10.90;90.20;;;;;;5133342;28;20057;-74
2022/12/29 11:45:56;;;;;;;2.38;0.85;;;11.00;90.10;;;;;;5133342;28;20050;-75
2022/12/29 11:48:22;;;;;;;5.43;1.30;;;11.10;89.40;;;;;;5133479;28;20015;-74
2022/12/29 11:50:59;;;;;;;4.57;0.95;;;11.00;89.30;;;;;;5133391;28;20023;-75
2022/12/29 11:53:28;;;;;;;5.30;0.90;;;11.00;89.30;;;;;;5133329;28;20026;-75
2022/12/29 11:55:56;;;;;;;6.28;1.05;;;11.00;89.00;;;;;;5134141;28;20024;-75
2022/12/29 11:58:36;;;;;;;3.78;0.88;;;11.00;89.00;;;;;;5134173;28;20044;-74
2022/12/29 12:01:15;;;;;;;12.10;2.60;;;10.90;88.00;;;;;;5132835;28;20042;-74
2022/12/29 12:03:47;;;;;;;3.25;1.17;;;11.00;88.00;;;;;;5133212;28;20031;-75
2022/12/29 12:06:18;;;;;;;7.15;1.45;;;11.00;88.20;;;;;;5134117;28;20072;-75
2022/12/29 12:08:55;;;;;;;3.47;0.85;;;11.00;87.70;;;;;;5134002;28;20020;-74
2022/12/29 12:11:54;;;;;;;6.07;1.45;;;11.00;87.80;;;;;;5134103;28;20028;-74
2022/12/29 12:14:35;;;;;;;3.05;0.82;;;11.10;88.10;;;;;;5111337;28;20035;-74
2022/12/29 12:17:24;;;;;;;7.88;1.25;;;11.10;87.80;;;;;;5132878;28;20466;-74
2022/12/29 12:19:58;;;;;;;6.25;0.98;;;11.10;87.30;;;;;;5134021;28;20020;-74
2022/12/29 12:22:46;;;;;;;6.40;1.20;;;11.20;87.30;;;;;;5133767;28;20048;-75
2022/12/29 12:25:37;;;;;;;6.53;1.65;;;11.20;87.00;;;;;;5133954;28;20183;-74
2022/12/29 12:28:29;;;;;;;2.60;1.13;;;11.40;86.50;;;;;;5133914;28;20091;-75
2022/12/29 12:30:58;;;;;;;4.45;1.05;;;11.50;86.00;;;;;;5092252;28;20055;-74
2022/12/29 12:33:42;;;;;;;6.95;1.13;;;11.50;85.30;;;;;;5132843;28;20024;-74
2022/12/29 12:36:30;;;;;;;6.40;1.25;;;11.50;85.50;;;;;;5132715;28;20034;-74
2022/12/29 12:39:11;;;;;;;5.22;0.90;;;11.50;84.80;;;;;;5133780;28;20050;-74
2022/12/29 12:41:46;;;;;;;4.22;0.77;;;11.50;85.10;;;;;;5133784;28;20024;-74
2022/12/29 12:44:18;;;;;;;7.70;1.48;;;11.40;84.50;;;;;;5133690;28;20024;-74
2022/12/29 12:47:05;;;;;;;7.03;1.33;;;11.40;84.60;;;;;;5132722;28;20028;-74
2022/12/29 12:50:02;;;;;;;4.78;1.20;;;11.40;84.40;;;;;;5133736;28;20020;-75
2022/12/29 12:52:52;;;;;;;3.97;1.27;;;11.40;83.90;;;;;;5132680;28;20047;-74
2022/12/29 12:55:41;;;;;;;6.60;1.25;;;11.40;84.00;;;;;;5133587;28;20020;-75
2022/12/29 12:58:25;;;;;;;6.30;1.33;;;11.50;83.60;;;;;;5132630;28;20036;-74
2022/12/29 13:01:15;;;;;;;2.50;0.90;;;11.50;83.70;;;;;;5133593;28;20020;-74
2022/12/29 13:03:44;;;;;;;3.83;0.82;;;11.50;83.20;;;;;;5132563;28;20049;-74
2022/12/29 13:06:21;;;;;;;5.97;1.70;;;11.50;83.20;;;;;;5132400;28;20032;-74
2022/12/29 13:09:08;;;;;;;5.82;1.30;;;11.50;82.30;;;;;;5132445;28;20030;-74
2022/12/29 13:12:03;;;;;;;6.07;1.10;;;11.50;82.70;;;;;;5132392;28;20024;-76
2022/12/29 13:14:31;;;;;;;4.75;1.05;;;11.50;83.10;;;;;;5099317;28;20095;-75
2022/12/29 13:17:17;;;;;;;10.00;1.73;;;11.50;81.50;;;;;;5137151;28;20079;-74
2022/12/29 13:19:54;;;;;;;6.43;0.85;;;11.50;81.80;;;;;;5137187;28;20024;-74
2022/12/29 13:22:44;;;;;;;2.70;0.68;;;11.50;81.50;;;;;;5135942;28;20103;-74
2022/12/29 13:25:29;;;;;;;4.25;0.80;;;11.50;81.30;;;;;;5136097;28;20436;-74
2022/12/29 13:28:06;;;;;;;3.05;0.80;;;11.50;80.30;;;;;;5136973;28;20027;-74
2022/12/29 13:30:59;;;;;;;5.75;0.80;;;11.50;80.10;;;;;;5137085;28;20020;-75
2022/12/29 13:33:46;;;;;;;9.45;1.10;;;11.50;79.90;;;;;;5136994;28;20478;-74
2022/12/29 13:36:37;;;;;;;2.72;0.82;;;11.50;80.40;;;;;;5136829;28;20030;-75
2022/12/29 13:39:11;;;;;;;2.97;0.65;;;11.50;81.00;;;;;;5136812;28;20016;-74
2022/12/29 13:41:56;;;;;;;7.95;1.45;;;11.50;83.20;;;;;;5135768;28;20371;-74